TimeCDT,TemperatureF,Dew PointF,Humidity,Sea Level PressureIn,VisibilityMPH,Wind Direction,Wind SpeedMPH,Gust SpeedMPH,PrecipitationIn,Events,Conditions,WindDirDegrees,DateUTC
10:58 AM,58.5,58.5,100,29.96,10.0,East,5.8,-,N/A,,Overcast,90,2013-10-04 15:58:00
11:58 AM,59.2,59.2,100,30.00,10.0,SE,6.9,-,N/A,,Overcast,130,2013-10-04 16:58:00
12:53 PM,59.0,59.0,100,30.00,10.0,East,8.1,-,N/A,,Overcast,90,2013-10-04 17:53:00
12:58 PM,58.8,58.8,100,30.00,10.0,East,6.9,-,N/A,,Overcast,90,2013-10-04 17:58:00
1:58 PM,59.2,59.2,100,29.99,10.0,East,6.9,-,N/A,,Overcast,80,2013-10-04 18:58:00
2:58 PM,59.0,59.0,100,29.96,10.0,East,11.5,-,N/A,,Overcast,90,2013-10-04 19:58:00
3:43 PM,59.0,59.0,100,29.96,10.0,East,8.1,-,N/A,,Overcast,80,2013-10-04 20:43:00
3:58 PM,59.7,59.7,100,29.96,10.0,East,9.2,-,N/A,,Overcast,80,2013-10-04 20:58:00
4:58 PM,59.2,59.2,100,29.96,10.0,ENE,9.2,-,N/A,,Overcast,70,2013-10-04 21:58:00
5:33 PM,59.0,59.0,100,29.97,10.0,East,6.9,-,N/A,,Overcast,80,2013-10-04 22:33:00
5:58 PM,58.5,58.5,100,29.97,8.0,ENE,8.1,-,N/A,,Overcast,70,2013-10-04 22:58:00
6:28 PM,59.0,59.0,100,29.96,3.0,East,10.4,-,N/A,,Overcast,80,2013-10-04 23:28:00
6:38 PM,59.0,59.0,100,29.95,2.5,East,11.5,-,N/A,,Overcast,80,2013-10-04 23:38:00
6:48 PM,59.0,59.0,100,29.95,3.0,East,10.4,-,N/A,,Overcast,80,2013-10-04 23:48:00
6:53 PM,59.0,59.0,100,29.95,3.0,East,10.4,-,N/A,,Overcast,80,2013-10-04 23:53:00
6:58 PM,58.1,58.1,100,29.95,3.0,East,10.4,-,N/A,,Overcast,80,2013-10-04 23:58:00
7:38 PM,59.0,59.0,100,29.96,2.5,East,13.8,-,N/A,,Overcast,90,2013-10-05 00:38:00
7:43 PM,59.0,59.0,100,29.96,2.0,East,13.8,-,N/A,,Overcast,90,2013-10-05 00:43:00
7:48 PM,59.0,59.0,100,29.96,2.5,East,10.4,-,N/A,,Overcast,90,2013-10-05 00:48:00
7:53 PM,59.0,59.0,100,29.95,3.0,East,13.8,-,N/A,,Overcast,90,2013-10-05 00:53:00
7:58 PM,58.5,58.5,100,29.96,3.0,East,10.4,-,N/A,,Overcast,90,2013-10-05 00:58:00
8:23 PM,59.0,59.0,100,29.97,5.0,East,10.4,-,N/A,,Overcast,90,2013-10-05 01:23:00
8:43 PM,59.0,59.0,100,29.96,6.0,East,10.4,-,N/A,,Overcast,80,2013-10-05 01:43:00
8:57 PM,59.0,59.0,100,29.96,6.0,East,11.5,16.1,N/A,Rain,Light Rain,80,2013-10-05 01:57:00
8:58 PM,59.0,59.0,100,29.96,6.0,East,11.5,16.1,N/A,Rain,Light Rain,80,2013-10-05 01:58:00
9:08 PM,59.0,59.0,100,29.96,6.0,East,9.2,-,N/A,Rain,Light Rain,80,2013-10-05 02:08:00
9:16 PM,59.0,59.0,100,29.97,7.0,East,10.4,-,N/A,,Overcast,90,2013-10-05 02:16:00
9:41 PM,59.0,59.0,100,29.98,10.0,East,10.4,-,N/A,,Overcast,90,2013-10-05 02:41:00
9:58 PM,58.3,58.3,100,29.99,10.0,East,11.5,19.6,0.00,,Overcast,80,2013-10-05 02:58:00
10:28 PM,57.2,57.2,100,29.97,9.0,ENE,8.1,-,N/A,,Overcast,60,2013-10-05 03:28:00
10:58 PM,57.7,57.7,100,29.97,5.0,East,12.7,-,N/A,,Overcast,80,2013-10-05 03:58:00
11:03 PM,57.2,57.2,100,29.96,4.0,East,10.4,-,N/A,,Overcast,80,2013-10-05 04:03:00
11:28 PM,57.2,57.2,100,29.94,4.0,East,12.7,-,N/A,Thunderstorm,Overcast,90,2013-10-05 04:28:00
11:43 PM,57.2,57.2,100,29.93,5.0,East,13.8,-,N/A,,Overcast,90,2013-10-05 04:43:00
11:53 PM,57.2,57.2,100,29.93,6.0,East,15.0,-,N/A,,Overcast,90,2013-10-05 04:53:00
11:58 PM,57.7,57.7,100,29.94,7.0,East,12.7,-,N/A,,Overcast,100,2013-10-05 04:58:00